Time;durP1;ratioP1;P1;durP2;ratioP2;P2;SDS_P1;SDS_P2;PMS_P1;PMS_P2;Temp;Humidity;BMP_temperature;BMP_pressure;BME280_temperature;BME280_humidity;BME280_pressure;Samples;Min_cycle;Max_cycle;Signal;HPM_P1;HPM_P2
2021/05/14 00:00:37;;;;;;;2.53;2.33;;;;;;;14.60;73.66;94252.09;5096158;28;20446;-85
2021/05/14 00:03:03;;;;;;;2.80;2.50;;;;;;;14.58;73.04;94247.00;5095546;28;20477;-85
2021/05/14 00:05:30;;;;;;;2.60;2.40;;;;;;;14.48;73.33;94227.91;5095883;28;20487;-86
2021/05/14 00:07:56;;;;;;;3.50;2.20;;;;;;;14.50;73.31;94217.97;5095855;28;20461;-86
2021/05/14 00:10:23;;;;;;;2.00;1.87;;;;;;;14.52;73.06;94219.47;5060940;28;20446;-86
2021/05/14 00:12:51;;;;;;;2.63;2.43;;;;;;;14.51;72.63;94219.63;5096472;28;20970;-86
2021/05/14 00:15:18;;;;;;;2.57;2.20;;;;;;;14.48;72.20;94215.50;5095725;28;20455;-86
2021/05/14 00:17:45;;;;;;;6.50;2.73;;;;;;;14.42;72.52;94223.25;5095619;28;20447;-86
2021/05/14 00:20:12;;;;;;;2.60;2.40;;;;;;;14.38;72.99;94212.19;5095527;28;20938;-86
2021/05/14 00:22:39;;;;;;;2.93;2.10;;;;;;;14.39;73.46;94207.75;5095873;28;20927;-86
2021/05/14 00:25:06;;;;;;;2.90;2.23;;;;;;;14.40;73.28;94209.38;5095944;28;20446;-86
2021/05/14 00:27:32;;;;;;;3.17;2.20;;;;;;;14.41;72.20;94211.84;5095017;28;20486;-87
2021/05/14 00:30:01;;;;;;;4.80;2.50;;;;;;;14.38;72.30;94220.13;5095129;28;20442;-86
2021/05/14 00:32:27;;;;;;;4.60;2.30;;;;;;;14.33;73.20;94208.44;5095105;28;20445;-86
2021/05/14 00:34:54;;;;;;;2.73;2.10;;;;;;;14.21;73.54;94210.63;5096111;28;20457;-86
2021/05/14 00:37:20;;;;;;;7.17;2.50;;;;;;;14.18;73.93;94214.41;5095326;28;20445;-86
2021/05/14 00:39:46;;;;;;;2.27;2.10;;;;;;;14.17;73.86;94218.03;5095329;28;20445;-86
2021/05/14 00:42:13;;;;;;;2.20;2.00;;;;;;;14.14;73.28;94218.34;5094836;28;20445;-88
2021/05/14 00:44:45;;;;;;;3.97;1.93;;;;;;;14.17;72.22;94225.97;5095262;28;20796;-83
2021/05/14 00:47:14;;;;;;;4.27;2.23;;;;;;;14.26;72.97;94227.59;5095069;28;20558;-84
2021/05/14 00:49:43;;;;;;;5.50;2.20;;;;;;;14.33;72.90;94224.25;5095109;28;20449;-86
2021/05/14 00:52:10;;;;;;;3.73;2.53;;;;;;;14.38;72.20;94227.22;5095539;28;20453;-86
2021/05/14 00:54:37;;;;;;;5.20;2.20;;;;;;;14.43;73.52;94228.38;5095038;28;20911;-85
2021/05/14 00:57:05;;;;;;;2.10;1.97;;;;;;;14.44;72.64;94245.03;5094959;28;20446;-84
2021/05/14 00:59:32;;;;;;;2.50;2.00;;;;;;;14.41;72.15;94246.16;5058757;28;20450;-86
2021/05/14 01:01:58;;;;;;;2.83;2.30;;;;;;;14.41;71.77;94242.72;5094406;28;20986;-87
2021/05/14 01:04:25;;;;;;;5.10;2.33;;;;;;;14.40;72.09;94251.63;5095245;28;20823;-85
2021/05/14 01:06:52;;;;;;;4.60;2.27;;;;;;;14.41;72.21;94248.00;5059778;28;20495;-85
2021/05/14 01:09:19;;;;;;;5.37;2.27;;;;;;;14.42;72.74;94250.44;5095713;28;20780;-84
2021/05/14 01:11:45;;;;;;;3.63;2.17;;;;;;;14.39;72.33;94244.69;5095247;28;20447;-85
2021/05/14 01:14:11;;;;;;;3.73;2.67;;;;;;;14.38;71.92;94248.31;5095294;28;20446;-84
2021/05/14 01:16:38;;;;;;;2.33;2.13;;;;;;;14.35;72.25;94254.78;5094702;28;20444;-85
2021/05/14 01:19:05;;;;;;;2.83;2.40;;;;;;;14.34;71.54;94252.31;5094039;28;20533;-85
2021/05/14 01:21:32;;;;;;;4.87;2.20;;;;;;;14.31;71.72;94250.00;5094717;28;20443;-85
2021/05/14 01:23:58;;;;;;;4.67;2.43;;;;;;;14.31;71.65;94247.38;5094895;28;20438;-84
2021/05/14 01:26:26;;;;;;;3.83;2.50;;;;;;;14.28;71.52;94259.09;5094649;28;20988;-86
2021/05/14 01:28:53;;;;;;;4.17;2.30;;;;;;;14.30;71.48;94251.00;5094485;28;20437;-85
2021/05/14 01:31:20;;;;;;;3.27;2.37;;;;;;;14.28;72.34;94248.53;5093883;28;20449;-84
2021/05/14 01:33:47;;;;;;;2.37;1.93;;;;;;;14.18;71.68;94254.00;5094670;28;20461;-86
2021/05/14 01:36:14;;;;;;;6.80;2.50;;;;;;;14.14;71.75;94254.47;5094427;28;20440;-85
2021/05/14 01:38:41;;;;;;;1.63;1.53;;;;;;;14.08;72.22;94253.31;5074822;28;20925;-85
2021/05/14 01:41:08;;;;;;;1.83;1.73;;;;;;;14.04;72.84;94249.38;5094218;28;20451;-85
2021/05/14 01:43:34;;;;;;;3.63;2.00;;;;;;;14.04;73.12;94252.03;5094310;28;20445;-86
2021/05/14 01:46:02;;;;;;;2.73;1.90;;;;;;;13.99;73.78;94248.25;5094614;28;20508;-84
2021/05/14 01:48:28;;;;;;;3.30;1.80;;;;;;;13.95;73.51;94253.03;5094013;28;20445;-85
2021/05/14 01:50:55;;;;;;;3.20;1.90;;;;;;;13.91;73.53;94252.53;5093891;28;20452;-85
2021/05/14 01:53:21;;;;;;;2.53;2.20;;;;;;;13.91;73.65;94254.34;5093560;28;20449;-85
2021/05/14 01:55:48;;;;;;;3.00;2.20;;;;;;;13.83;74.08;94255.16;5093570;28;20444;-84
2021/05/14 01:58:15;;;;;;;4.23;2.40;;;;;;;13.76;74.10;94271.81;5094297;28;20499;-85
2021/05/14 02:00:41;;;;;;;5.07;2.63;;;;;;;13.68;75.03;94267.38;5093813;28;20447;-86
2021/05/14 02:03:08;;;;;;;4.60;2.20;;;;;;;13.60;75.67;94270.84;5093821;28;20544;-85
2021/05/14 02:05:34;;;;;;;2.90;2.33;;;;;;;13.58;75.58;94270.13;5094505;28;20784;-86
2021/05/14 02:08:00;;;;;;;4.50;2.17;;;;;;;13.57;75.90;94263.22;5093525;28;20436;-85
2021/05/14 02:10:26;;;;;;;2.13;1.93;;;;;;;13.60;75.03;94264.72;5093689;28;20446;-85
2021/05/14 02:12:54;;;;;;;2.83;2.00;;;;;;;13.61;75.98;94261.09;5057865;28;20447;-85
2021/05/14 02:15:20;;;;;;;2.37;2.17;;;;;;;13.66;75.47;94263.25;5057707;28;20432;-85
2021/05/14 02:17:46;;;;;;;2.37;2.10;;;;;;;13.67;74.33;94255.19;5093831;28;20447;-86
2021/05/14 02:20:15;;;;;;;3.83;2.30;;;;;;;13.65;74.39;94249.25;5093464;28;20439;-85
2021/05/14 02:22:42;;;;;;;4.73;2.50;;;;;;;13.68;74.44;94256.00;5093057;28;20889;-86
2021/05/14 02:25:09;;;;;;;3.03;2.23;;;;;;;13.71;73.54;94267.03;5093522;28;20501;-85
2021/05/14 02:27:35;;;;;;;2.50;2.17;;;;;;;13.66;73.32;94266.72;5094322;28;20485;-85
2021/05/14 02:30:06;;;;;;;6.03;2.47;;;;;;;13.63;74.01;94274.94;5094151;28;20556;-85
2021/05/14 02:32:32;;;;;;;2.87;2.67;;;;;;;13.56;74.07;94273.94;5058648;28;20436;-86
2021/05/14 02:34:59;;;;;;;3.53;2.97;;;;;;;13.52;74.43;94273.44;5093929;28;20927;-86
2021/05/14 02:37:25;;;;;;;2.73;2.00;;;;;;;13.49;74.55;94268.50;5093871;28;20465;-86
2021/05/14 02:39:51;;;;;;;2.07;1.87;;;;;;;13.42;73.75;94271.94;5093692;28;20429;-83
2021/05/14 02:42:18;;;;;;;3.20;1.83;;;;;;;13.16;74.23;94264.94;5093428;28;20438;-87
2021/05/14 02:44:46;;;;;;;6.37;2.30;;;;;;;13.26;74.32;94270.09;5058491;28;20436;-85
2021/05/14 02:47:14;;;;;;;7.10;2.63;;;;;;;13.27;74.52;94269.94;5093366;28;20579;-86
2021/05/14 02:49:40;;;;;;;1.80;1.70;;;;;;;13.30;75.04;94272.28;5093249;28;20448;-87
2021/05/14 02:52:07;;;;;;;3.13;2.50;;;;;;;13.28;74.43;94268.13;5093142;28;20447;-83
2021/05/14 02:54:33;;;;;;;2.10;1.90;;;;;;;13.23;74.04;94268.59;5093765;28;20489;-86
2021/05/14 02:57:00;;;;;;;3.20;2.43;;;;;;;13.21;74.57;94275.84;5093467;28;20939;-86
2021/05/14 02:59:26;;;;;;;2.10;1.90;;;;;;;13.16;74.34;94272.84;5074635;28;20464;-87
2021/05/14 03:01:53;;;;;;;1.90;1.73;;;;;;;12.76;76.79;94276.19;5093150;28;20448;-86
2021/05/14 03:04:20;;;;;;;3.80;2.43;;;;;;;12.83;77.25;94285.09;5061822;28;20454;-87
2021/05/14 03:06:47;;;;;;;4.03;1.87;;;;;;;12.82;77.18;94283.44;5096293;28;20475;-87
2021/05/14 03:09:13;;;;;;;3.47;2.40;;;;;;;12.86;77.29;94289.22;5096685;28;21060;-86
2021/05/14 03:11:40;;;;;;;11.40;3.13;;;;;;;12.88;76.64;94288.06;5096865;28;20445;-87
2021/05/14 03:14:06;;;;;;;12.03;2.63;;;;;;;12.92;76.89;94286.75;5096598;28;20763;-87
2021/05/14 03:16:33;;;;;;;2.60;2.20;;;;;;;12.98;76.10;94294.00;5096398;28;20447;-85
2021/05/14 03:18:59;;;;;;;4.30;2.23;;;;;;;13.12;76.06;94283.88;5096761;28;20833;-87
2021/05/14 03:21:27;;;;;;;3.00;2.80;;;;;;;13.23;75.27;94288.88;5096764;28;20451;-85
2021/05/14 03:23:53;;;;;;;12.63;3.23;;;;;;;13.31;74.79;94302.91;5097721;28;20454;-87
2021/05/14 03:26:20;;;;;;;2.53;2.23;;;;;;;13.21;74.48;94296.09;5097207;28;20482;-87
2021/05/14 03:28:46;;;;;;;3.30;2.77;;;;;;;13.07;75.38;94297.53;5061706;28;20794;-88
2021/05/14 03:31:13;;;;;;;5.60;2.50;;;;;;;13.00;76.76;94297.31;5097311;28;20450;-86
2021/05/14 03:33:39;;;;;;;5.57;3.00;;;;;;;12.98;77.65;94299.28;5096882;28;20448;-87
2021/05/14 03:36:05;;;;;;;8.93;2.50;;;;;;;13.03;76.78;94302.28;5096766;28;20442;-87
2021/05/14 03:38:33;;;;;;;3.93;2.60;;;;;;;13.09;75.73;94302.63;5097302;28;20444;-87
2021/05/14 03:41:02;;;;;;;5.60;2.93;;;;;;;13.12;76.36;94297.03;5096981;28;20499;-86
2021/05/14 03:43:28;;;;;;;2.70;2.10;;;;;;;13.18;76.53;94299.88;5028463;28;20451;-88
2021/05/14 03:45:54;;;;;;;5.00;2.53;;;;;;;13.25;76.85;94298.25;5097422;28;20490;-88
2021/05/14 03:48:21;;;;;;;4.73;2.90;;;;;;;13.29;76.61;94302.22;5060647;28;20461;-87
2021/05/14 03:50:50;;;;;;;2.47;2.33;;;;;;;13.66;75.84;94300.16;5096435;28;20439;-84
2021/05/14 03:53:16;;;;;;;4.57;3.50;;;;;;;13.99;72.94;94295.72;5096967;28;20439;-88
2021/05/14 03:55:44;;;;;;;2.90;2.50;;;;;;;14.58;72.34;94297.16;5095986;28;20482;-87
2021/05/14 03:58:10;;;;;;;3.60;3.30;;;;;;;15.25;68.31;94307.31;5096113;28;20446;-87
2021/05/14 04:00:37;;;;;;;4.77;2.67;;;;;;;15.73;65.97;94298.31;5095808;28;20442;-87
2021/05/14 04:03:04;;;;;;;6.60;2.43;;;;;;;16.20;64.03;94284.88;5095817;28;20845;-85
2021/05/14 04:05:30;;;;;;;4.37;2.50;;;;;;;16.75;63.27;94302.22;5096667;28;20446;-87
2021/05/14 04:07:57;;;;;;;3.10;2.80;;;;;;;17.18;60.71;94299.75;5096963;28;20487;-87
2021/05/14 04:10:34;;;;;;;5.93;2.47;;;;;;;17.58;58.59;94299.22;5096643;28;20444;-88
2021/05/14 04:15:46;;;;;;;5.40;3.60;;;;;;;18.27;57.19;94298.72;5096832;28;20415;-84
2021/05/14 04:18:20;;;;;;;6.43;2.50;;;;;;;18.62;55.75;94302.28;5096304;28;20448;-86
2021/05/14 04:20:46;;;;;;;3.33;3.03;;;;;;;18.66;54.55;94302.72;5063142;28;20513;-87
2021/05/14 04:23:12;;;;;;;3.73;2.50;;;;;;;18.50;54.89;94306.44;5095751;28;20451;-87
2021/05/14 04:25:39;;;;;;;2.23;2.00;;;;;;;18.36;56.40;94308.19;5095355;28;20807;-85
2021/05/14 04:28:06;;;;;;;7.33;2.07;;;;;;;18.37;54.99;94307.16;5095721;28;20480;-84
2021/05/14 04:30:33;;;;;;;4.17;2.67;;;;;;;18.63;55.31;94321.72;5096518;28;20987;-87
2021/05/14 04:32:59;;;;;;;3.03;2.50;;;;;;;19.10;53.69;94329.81;5096438;28;20452;-86
2021/05/14 04:35:26;;;;;;;2.83;2.50;;;;;;;19.53;52.54;94329.63;5096158;28;20494;-86
2021/05/14 04:37:52;;;;;;;2.57;2.37;;;;;;;19.82;50.73;94319.72;5096528;28;20445;-85
2021/05/14 04:40:19;;;;;;;3.70;2.37;;;;;;;20.26;49.89;94325.34;5095458;28;20445;-84
2021/05/14 04:42:45;;;;;;;7.80;2.77;;;;;;;20.72;48.55;94319.22;5057202;28;20979;-87
2021/05/14 04:45:14;;;;;;;2.90;2.50;;;;;;;21.15;48.03;94313.44;5088541;28;20453;-86
2021/05/14 04:47:40;;;;;;;3.93;2.60;;;;;;;21.56;46.08;94335.31;5078580;28;20482;-91
2021/05/14 04:50:08;;;;;;;2.70;2.50;;;;;;;21.52;44.76;94334.09;5077993;28;20448;-87
2021/05/14 04:52:35;;;;;;;9.17;2.90;;;;;;;21.48;46.52;94335.53;5056573;28;20550;-84
2021/05/14 04:55:02;;;;;;;5.03;3.23;;;;;;;21.48;51.23;94329.38;5075049;28;20453;-85
2021/05/14 04:57:28;;;;;;;4.17;3.10;;;;;;;21.78;54.06;94335.84;5075463;28;20445;-86
2021/05/14 04:59:55;;;;;;;4.63;3.00;;;;;;;21.99;46.69;94333.91;5074738;28;20453;-83
2021/05/14 05:02:22;;;;;;;12.17;3.67;;;;;;;22.33;48.38;94330.03;5074716;28;20813;-87
2021/05/14 05:04:48;;;;;;;4.37;3.70;;;;;;;22.32;47.15;94326.53;5075457;28;20446;-89
2021/05/14 05:07:14;;;;;;;7.73;4.40;;;;;;;22.30;47.10;94338.47;5075472;28;20481;-88
2021/05/14 05:09:41;;;;;;;5.87;4.53;;;;;;;22.21;47.10;94349.41;5080844;28;20476;-89
2021/05/14 05:12:08;;;;;;;10.10;5.43;;;;;;;21.90;47.70;94333.31;5041259;28;20446;-90
2021/05/14 05:14:34;;;;;;;6.57;5.87;;;;;;;22.04;47.77;94334.09;5074440;28;20481;-86
2021/05/14 05:17:00;;;;;;;6.47;4.40;;;;;;;22.11;47.33;94332.22;5074099;28;20449;-85
2021/05/14 05:19:28;;;;;;;19.90;5.83;;;;;;;22.19;48.11;94343.44;5074573;28;20519;-87
2021/05/14 05:21:54;;;;;;;7.40;5.23;;;;;;;22.47;46.47;94343.06;5074044;28;20451;-88
2021/05/14 05:24:20;;;;;;;5.90;4.30;;;;;;;22.47;47.51;94342.25;5073551;28;20840;-88
2021/05/14 05:26:47;;;;;;;7.97;4.73;;;;;;;21.89;47.97;94342.34;5073519;28;20484;-85
2021/05/14 05:29:13;;;;;;;12.17;5.60;;;;;;;22.22;47.71;94351.03;5079307;28;20456;-88
2021/05/14 05:31:40;;;;;;;12.57;5.50;;;;;;;22.25;47.81;94353.28;5084612;28;21064;-88
2021/05/14 05:34:06;;;;;;;12.37;5.13;;;;;;;21.73;47.98;94358.88;5074053;28;20449;-85
2021/05/14 05:36:33;;;;;;;11.13;5.40;;;;;;;21.63;48.50;94346.78;5074317;28;20526;-87
2021/05/14 05:39:00;;;;;;;7.73;5.47;;;;;;;21.59;48.01;94347.41;5074597;28;20513;-87
2021/05/14 05:41:26;;;;;;;9.10;5.90;;;;;;;21.79;47.66;94353.50;5074437;28;20450;-87
2021/05/14 05:43:52;;;;;;;13.53;6.67;;;;;;;21.84;48.25;94363.53;5074205;28;20441;-83
2021/05/14 05:46:19;;;;;;;7.60;6.37;;;;;;;21.54;48.67;94360.56;5080952;28;20541;-85
2021/05/14 05:48:46;;;;;;;9.63;5.63;;;;;;;20.96;49.94;94357.78;5091290;28;20791;-86
2021/05/14 05:51:13;;;;;;;7.80;5.47;;;;;;;20.61;57.25;94363.34;5095439;28;20443;-86
2021/05/14 05:53:41;;;;;;;20.13;5.60;;;;;;;21.09;56.40;94356.94;5088262;28;20816;-87
2021/05/14 05:56:07;;;;;;;16.53;6.50;;;;;;;21.87;53.33;94373.81;5082048;28;20460;-84
2021/05/14 05:58:35;;;;;;;9.13;4.60;;;;;;;21.85;48.28;94368.69;5074175;28;20850;-83
2021/05/14 06:01:02;;;;;;;9.10;5.20;;;;;;;21.60;48.83;94371.22;5068353;28;20458;-83
2021/05/14 06:03:28;;;;;;;8.73;5.03;;;;;;;21.77;49.17;94373.44;5085928;28;20486;-83
2021/05/14 06:05:54;;;;;;;9.93;5.53;;;;;;;22.07;48.07;94374.56;5077019;28;20440;-82
2021/05/14 06:08:21;;;;;;;8.97;5.80;;;;;;;22.37;47.56;94380.16;5093969;28;20554;-83
2021/05/14 06:10:51;;;;;;;9.53;5.90;;;;;;;22.57;46.55;94377.38;5093981;28;20465;-84
2021/05/14 06:13:18;;;;;;;8.00;6.30;;;;;;;22.91;46.51;94381.47;5093517;28;20493;-81
2021/05/14 06:15:44;;;;;;;10.60;6.00;;;;;;;23.29;45.25;94381.34;5082247;28;20837;-83
2021/05/14 06:18:12;;;;;;;8.57;5.27;;;;;;;23.60;41.97;94376.94;5073718;28;20455;-82
2021/05/14 06:20:41;;;;;;;6.90;3.40;;;;;;;22.94;42.92;94377.53;5072925;28;20444;-82
2021/05/14 06:23:08;;;;;;;8.50;4.90;;;;;;;22.83;45.32;94387.06;5053693;28;20484;-82
2021/05/14 06:25:35;;;;;;;9.20;4.50;;;;;;;22.84;44.89;94372.66;5072340;28;20460;-81
2021/05/14 06:28:03;;;;;;;5.00;4.50;;;;;;;23.17;43.92;94383.09;5072709;28;20484;-82
2021/05/14 06:30:30;;;;;;;6.93;3.60;;;;;;;22.89;43.04;94378.19;5072603;28;20482;-82
2021/05/14 06:32:56;;;;;;;5.20;3.47;;;;;;;23.26;42.80;94387.13;5072747;28;20522;-81
2021/05/14 06:35:24;;;;;;;5.10;3.97;;;;;;;23.64;41.71;94391.50;5072497;28;20516;-81
2021/05/14 06:37:50;;;;;;;6.80;4.07;;;;;;;23.08;41.48;94379.03;5076287;28;20452;-82
2021/05/14 06:40:17;;;;;;;6.23;3.60;;;;;;;22.60;43.34;94382.28;5076697;28;20446;-83
2021/05/14 06:42:44;;;;;;;8.93;4.20;;;;;;;22.33;43.92;94359.44;5094067;28;20496;-82
2021/05/14 06:45:12;;;;;;;5.23;4.60;;;;;;;21.98;44.47;94357.13;5092818;28;20455;-82
2021/05/14 06:47:38;;;;;;;3.70;3.40;;;;;;;21.71;44.94;94371.63;5096833;28;20492;-81
2021/05/14 06:50:06;;;;;;;3.57;3.27;;;;;;;21.46;45.92;94368.81;5082582;28;20464;-81
2021/05/14 06:52:33;;;;;;;5.20;3.27;;;;;;;21.00;45.96;94353.66;5083671;28;20794;-82
2021/05/14 06:54:59;;;;;;;7.87;2.73;;;;;;;20.71;47.17;94355.75;5086173;28;20450;-81
2021/05/14 06:57:26;;;;;;;7.10;3.67;;;;;;;20.24;47.78;94358.50;5076326;28;20532;-82
2021/05/14 06:59:52;;;;;;;5.03;3.20;;;;;;;19.59;46.50;94368.75;5073908;28;20462;-82
2021/05/14 07:02:19;;;;;;;3.27;2.70;;;;;;;19.44;48.55;94374.19;5095726;28;20477;-82
2021/05/14 07:04:46;;;;;;;5.23;3.80;;;;;;;19.12;50.20;94378.31;5079592;28;20920;-83
2021/05/14 07:07:12;;;;;;;5.40;3.20;;;;;;;18.89;53.63;94380.41;5076191;28;20493;-85
2021/05/14 07:09:39;;;;;;;11.40;3.70;;;;;;;18.86;52.15;94380.78;5077418;28;20444;-88
2021/05/14 07:12:05;;;;;;;3.90;3.60;;;;;;;18.75;52.77;94395.41;5065983;28;20910;-87
2021/05/14 07:14:32;;;;;;;8.40;2.00;;;;;;;18.65;50.48;94386.13;5097003;28;20444;-84
2021/05/14 07:16:58;;;;;;;4.23;2.00;;;;;;;18.69;50.90;94382.06;5096689;28;20952;-86
2021/05/14 07:19:27;;;;;;;4.23;2.43;;;;;;;18.75;51.70;94368.00;5096758;28;20447;-85
2021/05/14 07:21:53;;;;;;;2.50;2.20;;;;;;;18.71;50.76;94372.88;5093549;28;20661;-87
2021/05/14 07:24:19;;;;;;;4.07;2.77;;;;;;;18.63;50.49;94380.19;5096405;28;20440;-87
2021/05/14 07:26:46;;;;;;;5.50;2.37;;;;;;;18.71;51.92;94382.69;5094472;28;20991;-87
2021/05/14 07:29:12;;;;;;;4.90;2.50;;;;;;;18.70;50.13;94384.53;5097629;28;20452;-88
2021/05/14 07:31:38;;;;;;;6.00;2.80;;;;;;;18.78;50.91;94383.56;5093450;28;21004;-86
2021/05/14 07:34:05;;;;;;;5.67;3.23;;;;;;;18.71;50.90;94380.84;5087516;28;20452;-88
2021/05/14 07:36:32;;;;;;;4.50;2.10;;;;;;;18.73;52.30;94370.84;5091542;28;20482;-86
2021/05/14 07:38:59;;;;;;;2.53;1.60;;;;;;;18.65;50.55;94383.47;5086418;28;20444;-87
2021/05/14 07:41:25;;;;;;;3.37;1.80;;;;;;;18.44;51.37;94374.47;5089783;28;20449;-87
2021/05/14 07:43:53;;;;;;;5.00;2.00;;;;;;;18.22;50.47;94378.97;5096554;28;20437;-85
2021/05/14 07:46:19;;;;;;;6.30;1.50;;;;;;;18.08;52.88;94382.50;5097042;28;20495;-86
2021/05/14 07:48:47;;;;;;;4.03;1.90;;;;;;;17.88;51.92;94365.50;5095589;28;20452;-88
2021/05/14 07:51:14;;;;;;;1.40;1.30;;;;;;;17.69;53.66;94376.75;5096477;28;20459;-87
2021/05/14 07:53:41;;;;;;;1.70;1.57;;;;;;;17.82;52.62;94375.06;5091202;28;20452;-87
2021/05/14 07:56:09;;;;;;;1.60;1.33;;;;;;;18.01;51.92;94376.28;5077393;28;20450;-86
2021/05/14 07:58:35;;;;;;;2.87;1.17;;;;;;;18.64;49.98;94371.19;5077499;28;20482;-88
2021/05/14 08:01:01;;;;;;;4.90;1.30;;;;;;;19.31;48.57;94368.78;5090550;28;20451;-82
2021/05/14 08:03:28;;;;;;;2.20;1.57;;;;;;;19.71;46.99;94377.84;5096673;28;20488;-90
2021/05/14 08:05:54;;;;;;;1.50;1.20;;;;;;;20.02;48.15;94376.53;5093520;28;20444;-88
2021/05/14 08:08:23;;;;;;;2.20;1.40;;;;;;;20.52;43.64;94374.38;5083487;28;20491;-87
2021/05/14 08:10:54;;;;;;;1.73;1.37;;;;;;;20.78;43.53;94376.25;5078493;28;20971;-87
2021/05/14 08:13:20;;;;;;;2.17;1.43;;;;;;;20.77;43.05;94375.41;5074129;28;20441;-87
2021/05/14 08:15:47;;;;;;;2.13;1.47;;;;;;;21.26;42.24;94385.69;5076294;28;20456;-84
2021/05/14 08:18:13;;;;;;;4.80;1.80;;;;;;;21.82;39.35;94378.97;5075973;28;20449;-87
2021/05/14 08:20:41;;;;;;;2.30;1.87;;;;;;;22.26;40.60;94375.47;5076039;28;20449;-84
2021/05/14 08:23:08;;;;;;;1.50;1.27;;;;;;;22.44;39.52;94380.94;5075766;28;20464;-85
2021/05/14 08:25:35;;;;;;;1.80;1.40;;;;;;;22.82;40.59;94367.53;5072599;28;21227;-86
2021/05/14 08:28:03;;;;;;;2.70;1.30;;;;;;;23.14;38.59;94367.50;5075644;28;20858;-87
2021/05/14 08:30:29;;;;;;;1.77;1.50;;;;;;;23.35;37.03;94374.28;5039829;28;20498;-87
2021/05/14 08:32:56;;;;;;;4.90;1.30;;;;;;;23.68;36.29;94371.28;5075025;28;20917;-86
2021/05/14 08:35:22;;;;;;;1.53;1.20;;;;;;;23.68;35.15;94372.09;5072696;28;20437;-87
2021/05/14 08:37:48;;;;;;;4.60;1.63;;;;;;;23.95;36.02;94374.47;5074997;28;20455;-87
2021/05/14 08:40:16;;;;;;;3.13;1.40;;;;;;;24.22;34.06;94375.75;5088891;28;20887;-85
2021/05/14 08:42:43;;;;;;;3.00;1.57;;;;;;;24.58;33.12;94380.25;5095030;28;20495;-85
2021/05/14 08:45:13;;;;;;;3.90;1.40;;;;;;;24.22;31.04;94375.75;5094556;28;20956;-84
2021/05/14 08:47:40;;;;;;;1.33;1.07;;;;;;;23.98;29.47;94369.47;5082737;28;20968;-87
2021/05/14 08:50:10;;;;;;;1.30;1.10;;;;;;;23.87;31.08;94362.19;5081650;28;20454;-82
2021/05/14 08:52:38;;;;;;;6.97;1.40;;;;;;;23.77;31.34;94356.56;5094497;28;20449;-83
2021/05/14 08:55:06;;;;;;;4.70;1.23;;;;;;;23.51;31.24;94362.19;5094892;28;20480;-86
2021/05/14 08:57:33;;;;;;;5.37;1.20;;;;;;;23.23;31.92;94368.84;5095214;28;20450;-82
2021/05/14 08:59:59;;;;;;;1.60;1.30;;;;;;;22.96;31.72;94364.75;5095047;28;20451;-90
2021/05/14 09:02:27;;;;;;;1.40;1.30;;;;;;;23.08;32.53;94365.66;5095007;28;20601;-88
2021/05/14 09:04:53;;;;;;;4.63;1.20;;;;;;;23.19;31.83;94375.66;5057357;28;20479;-89
2021/05/14 09:07:20;;;;;;;5.93;1.20;;;;;;;23.38;33.68;94374.63;5087488;28;20487;-85
2021/05/14 09:10:07;;;;;;;2.20;1.43;;;;;;;23.56;31.98;94371.19;5058253;28;20450;-84
2021/05/14 09:12:34;;;;;;;6.90;1.43;;;;;;;23.69;32.14;94379.09;5074220;28;20443;-86
2021/05/14 09:15:00;;;;;;;2.27;1.40;;;;;;;23.85;31.49;94369.63;5055486;28;20440;-88
2021/05/14 09:17:27;;;;;;;4.50;1.87;;;;;;;24.01;32.81;94377.09;5074189;28;20445;-92
2021/05/14 09:19:54;;;;;;;2.70;1.80;;;;;;;24.22;32.21;94366.91;5074469;28;20475;-83
2021/05/14 09:22:21;;;;;;;3.53;1.53;;;;;;;24.42;32.57;94380.06;5087464;28;20475;-84
2021/05/14 09:24:49;;;;;;;3.03;1.20;;;;;;;24.56;32.10;94365.41;5093794;28;20446;-84
2021/05/14 09:27:17;;;;;;;2.03;1.30;;;;;;;24.55;32.25;94385.25;5073657;28;20490;-85
2021/05/14 09:29:44;;;;;;;2.10;1.10;;;;;;;24.37;31.25;94368.16;5077666;28;20457;-87
2021/05/14 09:32:24;;;;;;;1.17;1.03;;;;;;;24.27;30.99;94375.91;5093977;28;20446;-84
2021/05/14 09:34:53;;;;;;;3.80;1.27;;;;;;;24.26;31.28;94362.72;5093927;28;20776;-86
2021/05/14 09:37:23;;;;;;;11.90;2.60;;;;;;;24.19;31.43;94359.31;5094035;28;20450;-86
2021/05/14 09:39:49;;;;;;;8.40;1.30;;;;;;;24.01;31.24;94369.03;5093041;28;20475;-85
2021/05/14 09:42:31;;;;;;;2.00;1.20;;;;;;;23.97;31.26;94356.28;5073913;28;20446;-86
2021/05/14 09:45:13;;;;;;;1.33;1.23;;;;;;;23.87;32.36;94356.84;5079814;28;20463;-86
2021/05/14 09:47:39;;;;;;;1.50;1.17;;;;;;;23.83;32.36;94358.31;5091291;28;20483;-89
2021/05/14 09:50:34;;;;;;;1.50;1.10;;;;;;;23.82;32.34;94348.66;5094029;28;20449;-85
2021/05/14 09:53:06;;;;;;;1.23;1.10;;;;;;;23.81;31.79;94352.38;5094443;28;20492;-85
2021/05/14 09:55:34;;;;;;;1.20;1.10;;;;;;;23.81;32.36;94356.91;5092094;28;20448;-87
2021/05/14 09:58:03;;;;;;;2.27;1.37;;;;;;;23.60;33.17;94344.78;5094192;28;20447;-88
2021/05/14 10:00:30;;;;;;;2.00;1.23;;;;;;;23.63;33.20;94342.47;5094924;28;20536;-90
2021/05/14 10:02:58;;;;;;;2.23;1.07;;;;;;;23.48;32.87;94348.19;5075649;28;20999;-87
2021/05/14 10:05:25;;;;;;;1.40;1.00;;;;;;;23.28;32.40;94346.75;5094039;28;20947;-87
2021/05/14 10:07:53;;;;;;;2.40;1.30;;;;;;;23.31;33.28;94357.00;5092047;28;20848;-87
2021/05/14 10:10:21;;;;;;;5.00;1.20;;;;;;;23.16;33.02;94362.72;5094317;28;20865;-88
2021/05/14 10:12:49;;;;;;;4.63;1.60;;;;;;;22.66;35.97;94343.97;5092878;28;20452;-87
2021/05/14 10:15:16;;;;;;;2.07;1.37;;;;;;;22.37;36.24;94363.31;5094323;28;20449;-88
2021/05/14 10:17:51;;;;;;;2.00;1.47;;;;;;;21.89;34.78;94353.03;5093819;28;20445;-91
2021/05/14 10:20:19;;;;;;;5.37;1.40;;;;;;;21.31;35.58;94361.84;5094273;28;20452;-86
2021/05/14 10:22:47;;;;;;;2.20;1.60;;;;;;;20.82;36.07;94365.00;5093102;28;21457;-89
2021/05/14 10:25:34;;;;;;;1.87;1.30;;;;;;;20.51;37.17;94364.75;5090036;28;20444;-87
2021/05/14 10:28:05;;;;;;;3.30;2.10;;;;;;;20.29;38.63;94375.56;5073390;28;20495;-89
2021/05/14 10:30:32;;;;;;;3.33;1.20;;;;;;;20.13;39.55;94386.59;5075674;28;20452;-86
2021/05/14 10:32:59;;;;;;;2.00;1.20;;;;;;;20.10;39.84;94382.47;5074818;28;20944;-85
2021/05/14 10:35:27;;;;;;;2.50;1.40;;;;;;;20.10;40.99;94392.31;5076556;28;20459;-89
2021/05/14 10:37:54;;;;;;;1.40;1.30;;;;;;;20.10;41.81;94402.97;5092538;28;20451;-89
2021/05/14 10:40:43;;;;;;;4.50;1.40;;;;;;;20.19;41.82;94401.75;5084138;28;20447;-87
2021/05/14 10:43:11;;;;;;;2.00;1.43;;;;;;;20.25;43.31;94402.81;5050902;28;20667;-87
2021/05/14 10:45:38;;;;;;;3.37;1.50;;;;;;;20.28;41.66;94405.91;5062993;28;20819;-88
2021/05/14 10:48:16;;;;;;;3.47;1.57;;;;;;;20.35;41.06;94406.72;5070797;28;20890;-86
2021/05/14 10:50:44;;;;;;;8.97;1.70;;;;;;;20.38;41.14;94393.00;5069632;28;20483;-85
2021/05/14 10:53:33;;;;;;;2.17;1.50;;;;;;;20.46;42.07;94384.00;5069523;28;20471;-87
2021/05/14 10:56:36;;;;;;;3.97;1.47;;;;;;;20.41;42.36;94391.81;5060127;28;21054;-86
2021/05/14 10:59:10;;;;;;;1.73;1.30;;;;;;;20.36;41.83;94395.03;5051940;28;20858;-86
2021/05/14 11:01:39;;;;;;;1.90;1.20;;;;;;;20.35;42.48;94395.25;5066805;28;20762;-87
2021/05/14 11:04:26;;;;;;;5.23;2.03;;;;;;;20.31;43.56;94397.50;5038785;28;20511;-87
2021/05/14 11:06:53;;;;;;;1.87;1.30;;;;;;;20.61;43.51;94395.31;5081200;28;20970;-88
2021/05/14 11:09:24;;;;;;;4.00;1.27;;;;;;;20.72;44.06;94383.22;5081068;28;20443;-87
2021/05/14 11:11:58;;;;;;;1.87;1.47;;;;;;;20.77;44.78;94385.28;5047156;28;20456;-88
2021/05/14 11:14:26;;;;;;;2.13;1.40;;;;;;;20.65;44.44;94379.75;5082141;28;20796;-87
2021/05/14 11:16:53;;;;;;;3.03;1.30;;;;;;;20.62;44.82;94372.16;5083276;28;20489;-88
2021/05/14 11:19:24;;;;;;;2.80;1.50;;;;;;;20.45;45.45;94370.88;5086066;28;20451;-87
2021/05/14 11:22:08;;;;;;;2.73;1.63;;;;;;;20.53;46.06;94376.03;5103626;28;20450;-86
2021/05/14 11:24:36;;;;;;;3.77;2.00;;;;;;;20.55;45.74;94388.16;5104721;28;20444;-86
2021/05/14 11:27:06;;;;;;;1.93;1.60;;;;;;;20.57;45.36;94393.28;5106616;28;20491;-89
2021/05/14 11:29:36;;;;;;;3.03;1.97;;;;;;;20.73;45.69;94388.34;5100253;28;20455;-86
2021/05/14 11:32:29;;;;;;;2.90;1.40;;;;;;;21.09;46.11;94389.78;5109229;28;20466;-87
2021/05/14 11:34:58;;;;;;;2.40;1.33;;;;;;;21.40;43.95;94381.16;5103971;28;20490;-85
2021/05/14 11:37:27;;;;;;;5.03;2.00;;;;;;;21.72;43.97;94371.41;5105523;28;20445;-88
2021/05/14 11:39:53;;;;;;;3.67;1.50;;;;;;;21.92;42.28;94371.31;5104905;28;20452;-85